Time;durP1;ratioP1;P1;durP2;ratioP2;P2;SDS_P1;SDS_P2;PMS_P1;PMS_P2;Temp;Humidity;BMP_temperature;BMP_pressure;BME280_temperature;BME280_humidity;BME280_pressure;Samples;Min_cycle;Max_cycle;Signal;HPM_P1;HPM_P2
2023/08/04 00:01:56;;;;;;;3.73;1.50;;;17.20;37.30;;;;;;5052944;28;46480;-67
2023/08/04 00:04:22;;;;;;;4.83;1.50;;;17.30;37.60;;;;;;5042879;28;46340;-68
2023/08/04 00:06:47;;;;;;;5.40;1.40;;;17.30;37.60;;;;;;5042630;28;46491;-68
2023/08/04 00:09:13;;;;;;;3.60;1.43;;;17.30;37.90;;;;;;5042413;28;46526;-68
2023/08/04 00:11:39;;;;;;;4.10;1.30;;;17.30;37.90;;;;;;5048936;28;46319;-68
2023/08/04 00:14:04;;;;;;;4.63;1.50;;;17.30;38.00;;;;;;5051722;28;46619;-68
2023/08/04 00:16:30;;;;;;;2.40;1.10;;;17.20;38.20;;;;;;5047950;28;46456;-66
2023/08/04 00:18:55;;;;;;;3.83;1.70;;;17.20;38.60;;;;;;5050903;28;46862;-67
2023/08/04 00:21:21;;;;;;;5.20;1.20;;;17.20;39.00;;;;;;5049083;28;46403;-66
2023/08/04 00:23:46;;;;;;;3.67;1.50;;;17.10;39.20;;;;;;5049854;28;46406;-68
2023/08/04 00:26:12;;;;;;;5.30;1.37;;;17.10;39.80;;;;;;5051004;28;46393;-68
2023/08/04 00:28:38;;;;;;;4.13;1.43;;;17.10;40.20;;;;;;5048900;28;46393;-68
2023/08/04 00:31:04;;;;;;;4.20;1.43;;;17.00;40.30;;;;;;5061850;28;47465;-68
2023/08/04 00:33:30;;;;;;;5.40;1.70;;;17.10;40.50;;;;;;5061598;28;46646;-68
2023/08/04 00:35:56;;;;;;;7.40;1.73;;;17.00;40.50;;;;;;5053355;28;46295;-68
2023/08/04 00:38:21;;;;;;;7.23;1.50;;;17.00;40.70;;;;;;5046812;28;46301;-68
2023/08/04 00:40:47;;;;;;;4.57;1.33;;;17.00;41.00;;;;;;5060009;28;47359;-68
2023/08/04 00:43:12;;;;;;;5.63;1.63;;;17.00;41.30;;;;;;5041771;28;46308;-68
2023/08/04 00:45:38;;;;;;;8.03;1.77;;;17.00;41.60;;;;;;5048436;28;45754;-68
2023/08/04 00:48:04;;;;;;;11.57;1.80;;;16.90;42.00;;;;;;5043930;28;45857;-68
2023/08/04 00:50:32;;;;;;;6.00;1.40;;;16.90;42.30;;;;;;5055021;28;46944;-68
2023/08/04 00:52:59;;;;;;;4.90;1.30;;;16.90;42.60;;;;;;5042938;28;46425;-68
2023/08/04 00:55:26;;;;;;;9.13;1.90;;;16.90;42.90;;;;;;5054434;28;46375;-68
2023/08/04 00:57:54;;;;;;;4.07;1.40;;;16.80;43.20;;;;;;5044482;28;46730;-68
2023/08/04 01:00:19;;;;;;;5.60;1.30;;;16.80;43.50;;;;;;5054363;28;46305;-68
2023/08/04 01:02:45;;;;;;;3.20;1.30;;;16.80;43.70;;;;;;5062340;28;46468;-68
2023/08/04 01:05:11;;;;;;;4.93;1.17;;;16.80;43.70;;;;;;5046114;28;46034;-68
2023/08/04 01:07:55;;;;;;;5.93;1.50;;;16.80;44.10;;;;;;5042217;28;46463;-68
2023/08/04 01:10:26;;;;;;;4.20;1.30;;;16.80;44.60;;;;;;5050012;28;48000;-68
2023/08/04 01:13:03;;;;;;;11.13;2.17;;;16.70;44.60;;;;;;5055838;28;46217;-68
2023/08/04 01:15:30;;;;;;;6.33;1.53;;;16.70;44.60;;;;;;5053233;28;46446;-68
2023/08/04 01:17:56;;;;;;;3.50;1.23;;;16.70;44.60;;;;;;5052796;28;46395;-68
2023/08/04 01:20:23;;;;;;;7.50;2.10;;;16.60;44.50;;;;;;5062387;28;46003;-68
2023/08/04 01:22:49;;;;;;;5.23;1.50;;;16.60;44.50;;;;;;5046340;28;46754;-68
2023/08/04 01:25:15;;;;;;;3.37;1.40;;;16.60;44.90;;;;;;5050601;28;46415;-68
2023/08/04 01:27:58;;;;;;;5.53;1.53;;;16.50;45.50;;;;;;5052708;28;46511;-68
2023/08/04 01:30:25;;;;;;;5.97;1.77;;;16.50;45.80;;;;;;5062006;28;47124;-68
2023/08/04 01:32:51;;;;;;;4.93;1.80;;;16.50;46.00;;;;;;5047981;28;46471;-68
2023/08/04 01:35:17;;;;;;;4.70;1.40;;;16.40;45.90;;;;;;5054108;28;46295;-67
2023/08/04 01:37:43;;;;;;;5.63;1.33;;;16.40;45.90;;;;;;5045818;28;45914;-67
2023/08/04 01:40:10;;;;;;;3.80;1.33;;;16.40;46.30;;;;;;5045667;28;46439;-68
2023/08/04 01:42:36;;;;;;;4.87;1.70;;;16.40;46.30;;;;;;5050125;28;46494;-67
2023/08/04 01:45:02;;;;;;;7.40;1.53;;;16.40;46.20;;;;;;5049190;28;46439;-65
2023/08/04 01:47:28;;;;;;;4.23;1.37;;;16.40;46.20;;;;;;5046374;28;46639;-68
2023/08/04 01:49:53;;;;;;;4.83;1.43;;;16.40;46.20;;;;;;5053345;28;46387;-68
2023/08/04 01:52:19;;;;;;;5.00;1.73;;;16.40;46.00;;;;;;5060125;28;46399;-67
2023/08/04 01:54:45;;;;;;;4.73;1.80;;;16.40;45.90;;;;;;5050619;28;46332;-67
2023/08/04 01:57:10;;;;;;;4.67;1.30;;;16.40;47.10;;;;;;5045166;28;46372;-68
2023/08/04 01:59:36;;;;;;;6.17;1.70;;;16.40;46.00;;;;;;5045473;28;46159;-68
2023/08/04 02:02:02;;;;;;;7.57;1.63;;;16.40;46.10;;;;;;5053290;28;46427;-68
2023/08/04 02:04:28;;;;;;;3.90;1.37;;;16.40;46.10;;;;;;5064179;28;46258;-68
2023/08/04 02:06:53;;;;;;;3.00;1.47;;;16.40;46.10;;;;;;5049766;28;46288;-68
2023/08/04 02:09:19;;;;;;;4.53;1.30;;;16.40;46.10;;;;;;5047852;28;46252;-68
2023/08/04 02:11:45;;;;;;;3.90;1.30;;;16.40;46.10;;;;;;5058005;28;46332;-68
2023/08/04 02:14:11;;;;;;;4.70;1.50;;;16.40;46.10;;;;;;5055372;28;46289;-68
2023/08/04 02:16:36;;;;;;;4.20;1.40;;;16.30;46.10;;;;;;5045160;28;46392;-68
2023/08/04 02:19:05;;;;;;;3.90;1.47;;;16.30;46.30;;;;;;5044627;28;47755;-68
2023/08/04 02:21:31;;;;;;;7.63;1.67;;;16.30;46.60;;;;;;5048881;28;46337;-68
2023/08/04 02:23:57;;;;;;;6.80;1.73;;;16.20;46.80;;;;;;5048255;28;46635;-68
2023/08/04 02:26:23;;;;;;;4.20;1.10;;;16.20;46.80;;;;;;5047474;28;46692;-68
2023/08/04 02:28:50;;;;;;;3.93;1.23;;;16.20;47.00;;;;;;5064852;28;46551;-68
2023/08/04 02:31:19;;;;;;;4.60;1.70;;;16.10;47.20;;;;;;5047048;28;46583;-68
2023/08/04 02:33:45;;;;;;;4.93;1.50;;;16.20;47.60;;;;;;5044060;28;46394;-68
2023/08/04 02:36:12;;;;;;;5.43;1.83;;;16.20;47.50;;;;;;5044307;28;46274;-68
2023/08/04 02:38:37;;;;;;;10.53;1.70;;;16.20;47.70;;;;;;5055065;28;47238;-67
2023/08/04 02:41:03;;;;;;;3.00;1.30;;;16.20;47.70;;;;;;5052189;28;46383;-67
2023/08/04 02:43:30;;;;;;;3.90;1.43;;;16.20;47.60;;;;;;5052167;28;46405;-68
2023/08/04 02:45:55;;;;;;;5.53;1.50;;;16.20;47.50;;;;;;5052104;28;46536;-68
2023/08/04 02:48:21;;;;;;;3.07;1.23;;;16.20;47.50;;;;;;5044362;28;47132;-68
2023/08/04 02:50:47;;;;;;;4.43;1.50;;;16.20;47.60;;;;;;5052273;28;46407;-67
2023/08/04 02:53:13;;;;;;;3.30;1.40;;;16.20;47.70;;;;;;5052456;28;46690;-67
2023/08/04 02:55:39;;;;;;;5.40;1.20;;;16.50;48.00;;;;;;5044420;28;46606;-68
2023/08/04 02:58:06;;;;;;;3.40;1.40;;;16.10;47.80;;;;;;5044305;28;46475;-67
2023/08/04 03:00:31;;;;;;;4.40;1.67;;;16.10;48.00;;;;;;5060576;28;46343;-67
2023/08/04 03:02:58;;;;;;;4.53;1.50;;;16.20;47.90;;;;;;5043664;28;46380;-67
2023/08/04 03:05:24;;;;;;;4.10;1.50;;;16.20;48.00;;;;;;5052415;28;46515;-67
2023/08/04 03:07:49;;;;;;;3.63;1.30;;;16.10;48.00;;;;;;5054088;28;47140;-67
2023/08/04 03:10:15;;;;;;;4.40;1.60;;;16.10;48.30;;;;;;5047253;28;46080;-67
2023/08/04 03:12:40;;;;;;;3.90;1.43;;;16.10;48.40;;;;;;5058477;28;45720;-67
2023/08/04 03:15:06;;;;;;;7.00;1.80;;;16.10;48.40;;;;;;5044006;28;46376;-67
2023/08/04 03:17:32;;;;;;;4.33;1.60;;;16.10;48.50;;;;;;5044648;28;46465;-67
2023/08/04 03:19:58;;;;;;;4.13;1.47;;;16.10;48.70;;;;;;5043665;28;46363;-67
2023/08/04 03:22:23;;;;;;;3.13;1.30;;;16.10;48.80;;;;;;5043616;28;46371;-67
2023/08/04 03:24:49;;;;;;;2.93;1.23;;;16.10;48.80;;;;;;5044414;28;45945;-67
2023/08/04 03:27:14;;;;;;;5.77;1.53;;;16.10;48.90;;;;;;5045144;28;46438;-67
2023/08/04 03:29:40;;;;;;;4.10;1.20;;;16.10;48.90;;;;;;5050893;28;46409;-67
2023/08/04 03:32:06;;;;;;;5.40;1.40;;;16.10;48.90;;;;;;5052419;28;46539;-67
2023/08/04 03:34:31;;;;;;;5.17;1.67;;;16.10;49.00;;;;;;5055660;28;46681;-68
2023/08/04 03:36:57;;;;;;;6.37;1.50;;;16.10;49.00;;;;;;5054948;28;46278;-67
2023/08/04 03:39:22;;;;;;;3.13;1.37;;;16.00;49.00;;;;;;5063206;28;46316;-67
2023/08/04 03:41:48;;;;;;;3.63;1.20;;;16.00;49.20;;;;;;5048687;28;46457;-67
2023/08/04 03:44:14;;;;;;;6.10;2.00;;;16.00;49.30;;;;;;5044829;28;46387;-67
2023/08/04 03:46:39;;;;;;;2.70;1.23;;;16.00;49.30;;;;;;5045106;28;46466;-67
2023/08/04 03:49:05;;;;;;;3.83;1.30;;;16.00;49.50;;;;;;5042661;28;46405;-67
2023/08/04 03:51:30;;;;;;;4.50;1.60;;;16.00;49.60;;;;;;5054828;28;46567;-67
2023/08/04 03:53:56;;;;;;;4.80;1.20;;;15.90;49.60;;;;;;5055419;28;46482;-67
2023/08/04 03:56:22;;;;;;;4.00;1.30;;;15.90;49.50;;;;;;5050396;28;46446;-67
2023/08/04 03:58:47;;;;;;;3.07;1.40;;;16.00;49.60;;;;;;5054574;28;46586;-67
2023/08/04 04:01:13;;;;;;;3.40;1.20;;;16.00;49.40;;;;;;5045032;28;46512;-67
2023/08/04 04:03:38;;;;;;;6.43;1.37;;;15.90;49.20;;;;;;5050931;28;46683;-67
2023/08/04 04:06:04;;;;;;;4.00;1.20;;;15.90;49.40;;;;;;5050657;28;46361;-67
2023/08/04 04:08:30;;;;;;;7.00;1.40;;;15.90;49.10;;;;;;5062432;28;46537;-67
2023/08/04 04:10:55;;;;;;;3.70;1.23;;;15.90;49.10;;;;;;5047332;28;46739;-67
2023/08/04 04:13:22;;;;;;;5.33;1.20;;;15.90;49.20;;;;;;5052026;28;45799;-67
2023/08/04 04:15:48;;;;;;;4.80;1.37;;;15.90;49.20;;;;;;5062482;28;46332;-67
2023/08/04 04:18:13;;;;;;;5.63;1.80;;;15.90;49.10;;;;;;5062503;28;46341;-67
2023/08/04 04:20:39;;;;;;;3.17;1.30;;;15.90;48.90;;;;;;5059197;28;46462;-67
2023/08/04 04:23:05;;;;;;;3.00;1.10;;;15.90;48.70;;;;;;5062445;28;46356;-67
2023/08/04 04:25:30;;;;;;;4.67;1.40;;;15.90;48.80;;;;;;5050994;28;47271;-67
2023/08/04 04:27:56;;;;;;;4.07;1.20;;;15.80;48.60;;;;;;5043905;28;46311;-67
2023/08/04 04:30:21;;;;;;;3.17;1.20;;;15.80;48.80;;;;;;5042066;28;46394;-67
2023/08/04 04:32:48;;;;;;;3.60;1.13;;;15.80;48.70;;;;;;5043715;28;46384;-67
2023/08/04 04:35:14;;;;;;;8.63;1.20;;;15.80;48.70;;;;;;5030673;28;48390;-67
2023/08/04 04:37:40;;;;;;;7.47;1.53;;;15.80;48.70;;;;;;5042392;28;46573;-67
2023/08/04 04:40:06;;;;;;;2.87;1.10;;;15.80;48.60;;;;;;5058204;28;46417;-68
2023/08/04 04:42:33;;;;;;;4.60;1.00;;;15.80;48.70;;;;;;5050448;28;46304;-67
2023/08/04 04:44:58;;;;;;;5.17;1.20;;;15.80;48.50;;;;;;5041844;28;47240;-67
2023/08/04 04:47:24;;;;;;;3.40;1.40;;;15.80;48.40;;;;;;5041870;28;46369;-67
2023/08/04 04:49:50;;;;;;;7.93;1.37;;;15.90;48.30;;;;;;5047454;28;46422;-67
2023/08/04 04:52:32;;;;;;;2.30;1.10;;;15.90;48.10;;;;;;5044740;28;46774;-67
2023/08/04 04:54:59;;;;;;;4.17;1.30;;;15.90;47.90;;;;;;5056382;28;47149;-67
2023/08/04 04:57:25;;;;;;;3.00;1.00;;;16.00;47.60;;;;;;5061651;28;46034;-67
2023/08/04 04:59:51;;;;;;;5.83;1.20;;;16.10;47.20;;;;;;5048030;28;46573;-67
2023/08/04 05:02:16;;;;;;;3.27;1.43;;;16.10;46.90;;;;;;5050909;28;46776;-67
2023/08/04 05:04:43;;;;;;;8.13;1.67;;;16.20;46.60;;;;;;5062981;28;47109;-67
2023/08/04 05:07:09;;;;;;;2.70;1.33;;;16.20;46.30;;;;;;5047740;28;46316;-66
2023/08/04 05:09:34;;;;;;;2.77;1.30;;;16.30;46.10;;;;;;5045034;28;46401;-67
2023/08/04 05:12:00;;;;;;;3.97;1.30;;;16.30;46.10;;;;;;5053246;28;46347;-66
2023/08/04 05:14:26;;;;;;;3.87;1.30;;;16.30;46.10;;;;;;5057304;28;47116;-67
2023/08/04 05:16:52;;;;;;;6.20;1.07;;;16.40;46.00;;;;;;5049970;28;46395;-67
2023/08/04 05:19:17;;;;;;;3.10;1.00;;;16.50;45.80;;;;;;5054563;28;45827;-68
2023/08/04 05:21:43;;;;;;;4.00;1.57;;;16.60;45.40;;;;;;5052473;28;46383;-68
2023/08/04 05:24:09;;;;;;;2.93;1.10;;;16.60;45.00;;;;;;5060440;28;47199;-68
2023/08/04 05:26:34;;;;;;;3.33;1.30;;;16.70;44.80;;;;;;5053587;28;46394;-68
2023/08/04 05:29:00;;;;;;;3.77;1.33;;;16.60;45.00;;;;;;5051506;28;46415;-68
2023/08/04 05:31:25;;;;;;;5.63;1.53;;;16.50;44.90;;;;;;5049832;28;46434;-68
2023/08/04 05:33:51;;;;;;;2.90;1.10;;;16.60;45.00;;;;;;5044700;28;46380;-68
2023/08/04 05:36:17;;;;;;;3.30;1.10;;;16.60;45.00;;;;;;5044643;28;46634;-67
2023/08/04 05:38:44;;;;;;;3.70;1.30;;;16.60;45.00;;;;;;5055111;28;46395;-68
2023/08/04 05:41:09;;;;;;;4.00;1.07;;;16.70;44.60;;;;;;5052530;28;46452;-67
2023/08/04 05:43:35;;;;;;;3.43;1.00;;;16.80;44.70;;;;;;5064449;28;46436;-67
2023/08/04 05:46:02;;;;;;;9.83;1.30;;;16.90;44.80;;;;;;5049978;28;46521;-67
2023/08/04 05:48:29;;;;;;;4.73;1.20;;;16.90;44.30;;;;;;5058431;28;46354;-67
2023/08/04 05:50:55;;;;;;;4.70;1.50;;;17.10;43.90;;;;;;5054998;28;46482;-67
2023/08/04 05:53:21;;;;;;;4.77;1.20;;;17.10;43.70;;;;;;5056097;28;46141;-72
2023/08/04 05:55:46;;;;;;;2.90;1.10;;;17.20;43.30;;;;;;5053884;28;46330;-69
2023/08/04 05:58:12;;;;;;;3.40;1.40;;;17.10;43.30;;;;;;5047801;28;46510;-69
2023/08/04 06:00:38;;;;;;;6.03;2.20;;;17.20;43.10;;;;;;5052966;28;46436;-70
2023/08/04 06:03:04;;;;;;;5.00;1.00;;;17.20;42.60;;;;;;5049829;28;46972;-68
2023/08/04 06:05:30;;;;;;;4.23;1.50;;;17.20;42.40;;;;;;5055199;28;46637;-68
2023/08/04 06:07:55;;;;;;;4.10;1.20;;;17.30;42.20;;;;;;5071598;22;46800;-72
2023/08/04 06:10:21;;;;;;;3.70;1.20;;;17.20;42.20;;;;;;5055969;28;46375;-68
2023/08/04 06:12:48;;;;;;;3.60;1.30;;;17.20;42.00;;;;;;5067973;28;46296;-69
2023/08/04 06:15:14;;;;;;;3.47;1.30;;;17.10;42.10;;;;;;5060769;28;46379;-70
2023/08/04 06:17:40;;;;;;;2.57;1.00;;;17.10;42.00;;;;;;5060922;28;46810;-70
2023/08/04 06:20:07;;;;;;;7.30;1.33;;;17.10;41.70;;;;;;5062135;28;46663;-69
2023/08/04 06:22:34;;;;;;;3.20;1.00;;;17.20;41.60;;;;;;5060500;28;46661;-70
2023/08/04 06:24:59;;;;;;;3.80;1.13;;;17.20;41.30;;;;;;5061561;28;46419;-69
2023/08/04 06:27:25;;;;;;;4.37;1.10;;;17.30;41.10;;;;;;5060145;28;46523;-70
2023/08/04 06:29:51;;;;;;;3.30;1.30;;;17.30;40.90;;;;;;5057132;28;46625;-70
2023/08/04 06:32:16;;;;;;;7.53;1.27;;;17.40;40.40;;;;;;5060093;28;46447;-69
2023/08/04 06:34:42;;;;;;;3.47;1.20;;;17.50;39.90;;;;;;5058652;28;46413;-70
2023/08/04 06:37:07;;;;;;;2.20;1.00;;;17.60;39.40;;;;;;5055582;28;46361;-70
2023/08/04 06:39:33;;;;;;;3.80;1.23;;;17.70;39.20;;;;;;5053444;28;46274;-70
2023/08/04 06:41:59;;;;;;;8.43;1.20;;;17.80;39.00;;;;;;5054636;28;46765;-70
2023/08/04 06:44:24;;;;;;;6.97;1.13;;;17.80;38.90;;;;;;5054559;28;46597;-70
2023/08/04 06:46:50;;;;;;;2.87;1.10;;;17.80;38.50;;;;;;5061286;28;45812;-69
2023/08/04 06:49:16;;;;;;;4.67;1.67;;;17.80;38.60;;;;;;5063333;28;46985;-69
2023/08/04 06:51:41;;;;;;;4.57;2.37;;;17.90;38.30;;;;;;5067675;28;47229;-69
2023/08/04 06:54:07;;;;;;;4.37;1.20;;;17.90;38.10;;;;;;5056526;28;46512;-69
2023/08/04 06:56:32;;;;;;;7.73;1.33;;;17.90;37.80;;;;;;5058984;28;45933;-70
2023/08/04 06:58:58;;;;;;;2.80;1.00;;;18.00;37.60;;;;;;5068912;28;46459;-70
2023/08/04 07:01:23;;;;;;;2.93;1.20;;;18.00;37.20;;;;;;5062700;28;46646;-69
2023/08/04 07:03:49;;;;;;;4.63;1.27;;;18.00;37.00;;;;;;5070603;28;46423;-69
2023/08/04 07:06:15;;;;;;;3.80;1.33;;;18.10;37.00;;;;;;5063479;28;46389;-69
2023/08/04 07:08:41;;;;;;;4.93;1.13;;;18.10;36.80;;;;;;5057889;28;46505;-70
2023/08/04 07:11:16;;;;;;;2.53;1.10;;;18.00;36.70;;;;;;5057422;28;46403;-69
2023/08/04 07:13:43;;;;;;;2.93;1.03;;;17.90;36.90;;;;;;5064189;28;46554;-68
2023/08/04 07:16:10;;;;;;;2.80;1.03;;;17.90;37.10;;;;;;5058621;27;46473;-71
2023/08/04 07:18:38;;;;;;;2.50;0.90;;;17.80;37.30;;;;;;5056362;28;46479;-68
2023/08/04 07:21:12;;;;;;;5.10;1.40;;;17.80;37.50;;;;;;5058131;28;46013;-67
2023/08/04 07:23:39;;;;;;;2.20;0.80;;;17.80;37.40;;;;;;5055182;28;46594;-68
2023/08/04 07:26:05;;;;;;;2.97;1.03;;;17.80;37.30;;;;;;5062304;28;46374;-68
2023/08/04 07:28:31;;;;;;;2.53;1.07;;;17.80;37.30;;;;;;5059471;28;46335;-68
2023/08/04 07:30:59;;;;;;;2.50;0.93;;;17.70;37.30;;;;;;5054397;28;47312;-70
2023/08/04 07:33:25;;;;;;;3.30;1.37;;;17.70;37.50;;;;;;5060034;28;46669;-68
2023/08/04 07:35:58;;;;;;;3.17;1.30;;;17.80;37.40;;;;;;5054990;28;46476;-68
2023/08/04 07:38:25;;;;;;;4.97;1.10;;;17.80;37.40;;;;;;5058653;28;46668;-69
2023/08/04 07:40:51;;;;;;;8.97;1.10;;;17.80;37.20;;;;;;5057835;28;46503;-68
2023/08/04 07:43:17;;;;;;;5.13;1.07;;;17.90;37.30;;;;;;5061474;28;46620;-69
2023/08/04 07:45:42;;;;;;;4.13;1.33;;;17.90;37.30;;;;;;5055036;28;46497;-66
2023/08/04 07:48:08;;;;;;;3.40;1.00;;;18.00;37.30;;;;;;5057358;28;46355;-68
2023/08/04 07:50:43;;;;;;;3.63;1.17;;;18.00;37.20;;;;;;5058844;28;47309;-66
2023/08/04 07:53:08;;;;;;;3.70;1.17;;;18.00;37.40;;;;;;5062903;28;46373;-67
2023/08/04 07:55:35;;;;;;;2.97;1.30;;;17.90;37.30;;;;;;5058165;28;46407;-67
2023/08/04 07:58:01;;;;;;;3.20;1.03;;;17.90;37.70;;;;;;5059047;28;47321;-67
2023/08/04 08:00:27;;;;;;;3.33;1.30;;;17.90;37.70;;;;;;5060769;28;47537;-68
2023/08/04 08:02:55;;;;;;;4.10;1.40;;;17.90;37.70;;;;;;5058762;28;46497;-68
2023/08/04 08:05:21;;;;;;;5.10;1.20;;;17.90;37.60;;;;;;5060623;28;46419;-67
2023/08/04 08:07:46;;;;;;;3.07;1.20;;;18.10;37.30;;;;;;5061120;28;46555;-68
2023/08/04 08:10:12;;;;;;;4.67;1.70;;;18.10;37.00;;;;;;5052510;28;46383;-68
2023/08/04 08:12:38;;;;;;;3.43;1.50;;;18.20;36.90;;;;;;5058040;28;46305;-68
2023/08/04 08:15:05;;;;;;;2.87;1.17;;;18.30;36.80;;;;;;5063784;28;46533;-68
2023/08/04 08:17:31;;;;;;;4.53;1.43;;;18.40;36.60;;;;;;5059737;28;46160;-68
2023/08/04 08:19:57;;;;;;;2.60;1.20;;;18.60;36.20;;;;;;5059873;28;47025;-68
2023/08/04 08:22:23;;;;;;;3.37;1.50;;;18.70;35.80;;;;;;5058477;28;46682;-68
2023/08/04 08:24:53;;;;;;;4.63;1.30;;;18.90;35.40;;;;;;5053376;28;46384;-68
2023/08/04 08:27:19;;;;;;;2.80;1.30;;;19.00;35.10;;;;;;5058422;28;46446;-68
2023/08/04 08:29:45;;;;;;;3.60;1.50;;;19.20;34.60;;;;;;5058107;28;46359;-68
2023/08/04 08:32:10;;;;;;;4.73;1.30;;;19.30;34.30;;;;;;5056764;28;46273;-67
2023/08/04 08:34:36;;;;;;;5.77;1.30;;;19.50;33.90;;;;;;5057245;28;46322;-67
2023/08/04 08:37:02;;;;;;;2.87;1.17;;;19.60;33.70;;;;;;5056744;28;46433;-67
2023/08/04 08:39:29;;;;;;;4.77;1.60;;;19.60;33.70;;;;;;5062179;28;46045;-66
2023/08/04 08:41:58;;;;;;;3.17;1.37;;;19.60;33.70;;;;;;5058970;28;46467;-67
2023/08/04 08:44:23;;;;;;;3.43;1.17;;;19.70;33.80;;;;;;5063906;28;46405;-65
2023/08/04 08:46:49;;;;;;;3.57;1.10;;;19.80;35.00;;;;;;5054747;28;46394;-67
2023/08/04 08:49:15;;;;;;;3.30;1.37;;;19.90;32.80;;;;;;5053470;28;46385;-67
2023/08/04 08:51:48;;;;;;;3.93;1.10;;;20.00;32.40;;;;;;5063794;28;46497;-66
2023/08/04 08:54:15;;;;;;;3.87;1.87;;;20.10;32.20;;;;;;5057857;28;46285;-67
2023/08/04 08:56:41;;;;;;;3.37;1.20;;;20.10;31.90;;;;;;5055736;28;45984;-67
2023/08/04 08:59:08;;;;;;;4.80;1.00;;;20.20;31.50;;;;;;5048295;28;47308;-67
2023/08/04 09:01:34;;;;;;;2.73;1.10;;;20.30;31.00;;;;;;5057377;28;46427;-65
2023/08/04 09:04:07;;;;;;;5.10;1.43;;;20.50;30.40;;;;;;5054754;28;46554;-66
2023/08/04 09:06:33;;;;;;;3.90;1.27;;;20.60;29.80;;;;;;5039743;28;46398;-66
2023/08/04 09:09:13;;;;;;;4.10;1.40;;;20.90;29.50;;;;;;5053059;28;47404;-67
2023/08/04 09:11:40;;;;;;;2.70;1.20;;;21.10;28.80;;;;;;5059705;28;46448;-66
2023/08/04 09:14:06;;;;;;;3.10;1.20;;;21.40;28.20;;;;;;5055331;28;46428;-68
2023/08/04 09:16:36;;;;;;;4.20;1.30;;;21.60;27.80;;;;;;5052853;28;46698;-69
2023/08/04 09:19:04;;;;;;;4.37;1.13;;;21.80;27.10;;;;;;5054189;28;47030;-69
2023/08/04 09:21:30;;;;;;;5.10;1.33;;;22.00;26.70;;;;;;5059936;28;45747;-66
2023/08/04 09:23:56;;;;;;;2.77;1.10;;;22.00;26.70;;;;;;5057724;28;46408;-66
2023/08/04 09:26:21;;;;;;;8.27;1.30;;;22.00;26.60;;;;;;5052276;28;46457;-65
2023/08/04 09:29:06;;;;;;;3.47;1.30;;;22.00;26.20;;;;;;5050771;28;46176;-66
2023/08/04 09:31:42;;;;;;;2.83;1.10;;;22.00;25.70;;;;;;5050221;28;46398;-66
2023/08/04 09:34:10;;;;;;;2.80;1.20;;;21.90;25.90;;;;;;5062431;28;46421;-66
2023/08/04 09:36:45;;;;;;;3.37;1.20;;;22.00;26.00;;;;;;5051002;28;46439;-66
2023/08/04 09:39:12;;;;;;;2.80;1.20;;;22.00;25.70;;;;;;5051462;28;46615;-66
2023/08/04 09:41:42;;;;;;;4.73;1.13;;;22.10;25.70;;;;;;5058148;28;46859;-66
2023/08/04 09:44:08;;;;;;;3.30;1.40;;;22.30;25.20;;;;;;5053784;28;46364;-67
2023/08/04 09:46:49;;;;;;;3.23;1.30;;;22.20;24.10;;;;;;5063150;28;46818;-66
2023/08/04 09:49:15;;;;;;;2.73;1.13;;;22.30;24.10;;;;;;5054175;28;46755;-64
2023/08/04 09:51:41;;;;;;;3.07;1.00;;;22.60;24.30;;;;;;5060751;28;46464;-66
2023/08/04 09:54:08;;;;;;;6.50;1.27;;;22.80;24.40;;;;;;5058083;28;46203;-66
2023/08/04 09:56:34;;;;;;;5.73;1.10;;;23.00;23.60;;;;;;5058119;28;46426;-65
2023/08/04 09:59:00;;;;;;;3.90;1.30;;;23.10;23.50;;;;;;5055885;28;46486;-65
2023/08/04 10:01:26;;;;;;;3.03;1.20;;;23.20;23.20;;;;;;5058506;28;46477;-65
2023/08/04 10:03:55;;;;;;;3.07;1.10;;;23.10;22.80;;;;;;5056642;28;46473;-65
2023/08/04 10:06:21;;;;;;;5.33;1.07;;;23.10;22.50;;;;;;5053243;28;46577;-65
2023/08/04 10:08:49;;;;;;;2.57;0.97;;;23.30;22.00;;;;;;5053766;28;46642;-64
2023/08/04 10:11:15;;;;;;;10.80;1.73;;;23.40;21.30;;;;;;5060758;28;46213;-65
2023/08/04 10:13:44;;;;;;;2.80;1.00;;;23.50;21.20;;;;;;5057650;28;46457;-65
2023/08/04 10:16:13;;;;;;;2.93;1.03;;;23.50;20.90;;;;;;5060424;28;45986;-65
2023/08/04 10:18:55;;;;;;;3.07;1.00;;;23.70;19.70;;;;;;5053530;28;46521;-65
2023/08/04 10:21:33;;;;;;;2.90;0.97;;;24.20;18.40;;;;;;5054433;28;46321;-65
2023/08/04 10:24:01;;;;;;;3.20;1.00;;;24.60;17.30;;;;;;5057065;28;46557;-65
2023/08/04 10:26:26;;;;;;;3.20;1.07;;;24.90;16.80;;;;;;5061272;28;46412;-69
2023/08/04 10:28:58;;;;;;;3.20;1.03;;;25.00;16.00;;;;;;5056043;28;47115;-69
2023/08/04 10:31:50;;;;;;;2.60;1.00;;;25.20;15.00;;;;;;5060177;28;46396;-68
2023/08/04 10:34:32;;;;;;;2.40;0.90;;;25.20;14.90;;;;;;5050853;28;46392;-68
2023/08/04 10:37:04;;;;;;;3.83;1.20;;;25.30;14.60;;;;;;5061990;28;46450;-69
2023/08/04 10:39:36;;;;;;;2.53;0.90;;;25.40;14.40;;;;;;5061275;28;46478;-69
2023/08/04 10:42:26;;;;;;;2.63;0.93;;;25.50;13.50;;;;;;5045023;28;46479;-69
2023/08/04 10:45:05;;;;;;;4.47;1.20;;;25.60;12.90;;;;;;5057419;28;46394;-70
2023/08/04 10:47:47;;;;;;;2.90;1.17;;;25.50;12.10;;;;;;5052001;28;46570;-69
2023/08/04 10:50:15;;;;;;;2.73;0.83;;;25.50;12.40;;;;;;5058451;28;46690;-69
2023/08/04 10:52:42;;;;;;;7.20;1.30;;;25.50;12.10;;;;;;5059775;28;46416;-69
2023/08/04 10:55:12;;;;;;;2.70;0.87;;;25.60;12.00;;;;;;5055687;28;46594;-69
2023/08/04 10:57:40;;;;;;;2.87;1.00;;;25.50;11.90;;;;;;5055122;28;46679;-69
2023/08/04 11:00:08;;;;;;;2.97;0.90;;;25.40;12.30;;;;;;5060830;28;46332;-68
2023/08/04 11:02:36;;;;;;;5.70;1.20;;;25.30;12.10;;;;;;5060626;28;46441;-69
2023/08/04 11:05:05;;;;;;;2.53;0.90;;;25.10;12.20;;;;;;5057006;28;46228;-69
2023/08/04 11:07:32;;;;;;;2.73;0.90;;;24.90;12.50;;;;;;5057101;28;46387;-69
2023/08/04 11:10:06;;;;;;;5.50;1.10;;;25.20;12.40;;;;;;5059871;28;47195;-68
2023/08/04 11:12:33;;;;;;;3.30;1.00;;;25.40;11.40;;;;;;5056120;28;46537;-69
2023/08/04 11:14:59;;;;;;;6.50;1.20;;;25.50;11.50;;;;;;5054517;28;46470;-69
2023/08/04 11:17:26;;;;;;;2.70;1.10;;;25.90;10.50;;;;;;5057993;28;46443;-68
2023/08/04 11:19:52;;;;;;;2.57;0.80;;;26.30;9.70;;;;;;5058974;28;46510;-70
2023/08/04 11:22:24;;;;;;;3.27;1.17;;;26.50;8.80;;;;;;5053973;28;46640;-69
2023/08/04 11:24:51;;;;;;;2.73;0.90;;;26.50;9.20;;;;;;5059518;28;46851;-69
2023/08/04 11:27:16;;;;;;;2.80;1.20;;;26.50;8.10;;;;;;5055286;28;46486;-69
2023/08/04 11:29:43;;;;;;;2.30;0.87;;;26.40;7.70;;;;;;5056853;28;46519;-70
2023/08/04 11:32:27;;;;;;;4.07;1.23;;;26.50;7.20;;;;;;5052586;28;47280;-69
2023/08/04 11:34:55;;;;;;;9.00;1.23;;;26.50;6.70;;;;;;5054398;28;46670;-69
2023/08/04 11:37:22;;;;;;;3.70;1.00;;;26.70;6.10;;;;;;5053141;28;45887;-70
2023/08/04 11:39:48;;;;;;;3.50;1.20;;;26.60;6.30;;;;;;5046806;28;46629;-70
2023/08/04 11:42:14;;;;;;;4.30;1.00;;;26.90;5.30;;;;;;5056220;28;46384;-70
2023/08/04 11:44:41;;;;;;;4.77;0.90;;;27.00;4.70;;;;;;5058926;28;45837;-69
2023/08/04 11:47:11;;;;;;;3.13;1.00;;;27.10;4.60;;;;;;5053441;28;46482;-69
2023/08/04 11:49:39;;;;;;;6.27;0.90;;;27.10;4.60;;;;;;5058602;28;47035;-69
2023/08/04 11:52:14;;;;;;;4.00;0.93;;;26.80;4.30;;;;;;5053714;28;46329;-69
2023/08/04 11:54:53;;;;;;;4.67;1.20;;;26.70;3.90;;;;;;5060308;28;46418;-69
2023/08/04 11:57:20;;;;;;;2.70;0.90;;;26.50;4.30;;;;;;5049124;28;46411;-70
2023/08/04 11:59:50;;;;;;;2.83;0.97;;;26.40;5.20;;;;;;5051868;28;47219;-69
2023/08/04 12:02:16;;;;;;;3.00;1.10;;;26.20;4.10;;;;;;5056815;28;46519;-70
2023/08/04 12:04:41;;;;;;;3.13;1.10;;;26.20;4.10;;;;;;5049811;28;46352;-70
2023/08/04 12:07:07;;;;;;;2.53;1.00;;;26.40;4.20;;;;;;5051180;28;46384;-69
2023/08/04 12:09:34;;;;;;;2.83;0.97;;;26.70;3.50;;;;;;5059979;28;47062;-70
2023/08/04 12:12:00;;;;;;;2.90;1.20;;;27.00;3.40;;;;;;5052633;28;46381;-70
2023/08/04 12:14:26;;;;;;;5.00;1.10;;;27.00;3.60;;;;;;5061096;28;46435;-70
2023/08/04 12:17:05;;;;;;;3.27;1.10;;;27.00;3.60;;;;;;5051982;28;46560;-70
2023/08/04 12:19:32;;;;;;;2.90;0.93;;;26.90;3.70;;;;;;5056132;28;47126;-69
2023/08/04 12:22:00;;;;;;;3.23;1.00;;;26.90;3.60;;;;;;5054836;28;46512;-69
2023/08/04 12:24:27;;;;;;;4.33;1.20;;;26.70;3.50;;;;;;5055246;28;45943;-70
2023/08/04 12:26:53;;;;;;;2.40;0.90;;;26.50;4.30;;;;;;5051786;28;46492;-69
2023/08/04 12:29:19;;;;;;;3.27;1.10;;;26.50;4.20;;;;;;5057224;28;46522;-70
2023/08/04 12:31:45;;;;;;;4.57;1.13;;;26.90;3.00;;;;;;5053722;28;46564;-69
2023/08/04 12:34:11;;;;;;;3.40;0.90;;;27.10;2.60;;;;;;5052822;28;46850;-69
2023/08/04 12:36:37;;;;;;;10.33;1.30;;;27.00;1.60;;;;;;5061689;28;46366;-69
2023/08/04 12:39:07;;;;;;;3.57;1.10;;;26.60;2.00;;;;;;5044871;28;47501;-70
2023/08/04 12:41:32;;;;;;;5.20;1.10;;;26.30;2.30;;;;;;5060870;28;46733;-69
2023/08/04 12:43:58;;;;;;;3.37;1.20;;;26.50;2.20;;;;;;5046407;28;46845;-69
2023/08/04 12:46:26;;;;;;;3.00;1.10;;;26.70;1.90;;;;;;5052364;28;46532;-70
2023/08/04 12:48:52;;;;;;;4.17;1.00;;;26.70;2.20;;;;;;5053369;28;48440;-70